Jolly Acres, South Dakota
Current Conditions -  °F | °C
As of 12:52 AM on Sunday 26 Oct 2014 (Local Time) from KRAP Reporting Station
Clear Clear  
Wind Chill:   Ceiling: Unl
Heat Index:   Visibility: 10mi
Dew Point:   Wind: 7mph
Humidity: 66%   Direction: 140°SE
Pressure: 29.76"   Gusts: NA
Location:  44.0731°N, 103.205°W
Report Text: KRAP 260652Z 14006KT 10SM CLR 09/03 A2976 RMK AO2 SLP070 T00890028 401890000
Loading
Personal Weather Stations






























Interactive Weather Map
Tropical Storm Tracking
New forecast layout! Learn more

10-Day Weather Forecast

Advertisements
Track Severe Weather on mobile